createdAt,value
2018-06-10T00:02:04.826Z,99.90
2018-06-10T00:04:33.295Z,99.90
2018-06-10T00:07:01.799Z,99.90
2018-06-10T00:09:30.850Z,99.90
2018-06-10T00:11:59.366Z,99.90
2018-06-10T00:14:27.878Z,99.90
2018-06-10T00:19:24.582Z,99.90
2018-06-10T00:21:53.010Z,99.90
2018-06-10T00:24:21.481Z,99.90
2018-06-10T00:26:49.980Z,99.90
2018-06-10T00:31:50.047Z,99.90
2018-06-10T00:34:19.359Z,99.90
2018-06-10T00:36:47.914Z,99.90
2018-06-10T00:39:17.326Z,99.90
2018-06-10T00:41:45.798Z,99.90
2018-06-10T00:52:42.914Z,99.90
2018-06-10T00:55:11.357Z,99.90
2018-06-10T00:57:39.822Z,99.90
2018-06-10T01:00:08.836Z,99.90
2018-06-10T01:02:37.274Z,99.90
2018-06-10T01:05:05.755Z,99.90
2018-06-10T01:07:34.241Z,99.90
2018-06-10T01:10:02.706Z,99.90
2018-06-10T01:12:31.167Z,99.90
2018-06-10T01:15:00.143Z,99.90
2018-06-10T01:19:56.844Z,99.90
2018-06-10T01:22:25.348Z,99.90
2018-06-10T01:24:53.802Z,99.90
2018-06-10T01:27:22.234Z,99.90
2018-06-10T01:29:50.714Z,99.90
2018-06-10T01:32:19.154Z,99.90
2018-06-10T01:34:47.588Z,99.90
2018-06-10T01:48:06.114Z,99.90
2018-06-10T01:50:35.059Z,99.90
2018-06-10T01:53:03.612Z,99.90
2018-06-10T01:55:32.109Z,99.90
2018-06-10T01:58:00.577Z,99.90
2018-06-10T02:00:29.559Z,99.90
2018-06-10T02:02:58.070Z,99.90
2018-06-10T02:05:26.534Z,99.90
2018-06-10T02:07:55.003Z,99.90
2018-06-10T02:10:23.877Z,99.90
2018-06-10T02:12:52.328Z,99.90
2018-06-10T02:15:20.807Z,99.90
2018-06-10T02:20:17.511Z,99.90
2018-06-10T02:22:45.993Z,99.90
2018-06-10T02:41:15.407Z,99.90
2018-06-10T02:43:43.882Z,99.90
2018-06-10T02:46:12.375Z,99.90
2018-06-10T02:48:40.896Z,99.90
2018-06-10T02:51:09.507Z,99.90
2018-06-10T02:53:37.997Z,99.90
2018-06-10T02:56:06.563Z,99.90
2018-06-10T02:58:35.037Z,99.90
2018-06-10T03:01:04.161Z,99.90
2018-06-10T03:03:33.457Z,99.90
2018-06-10T03:06:01.963Z,99.90
2018-06-10T03:08:30.425Z,99.90
2018-06-10T03:10:58.907Z,99.90
2018-06-10T03:13:27.374Z,99.90
2018-06-10T03:15:55.827Z,99.90
2018-06-10T03:18:24.302Z,99.90
2018-06-10T03:20:52.781Z,99.90
2018-06-10T03:25:49.534Z,99.90
2018-06-10T03:28:18.148Z,99.90
2018-06-10T03:30:46.600Z,99.90
2018-06-10T03:42:06.990Z,99.90
2018-06-10T03:44:36.227Z,99.90
2018-06-10T03:47:04.690Z,99.90
2018-06-10T03:49:33.186Z,99.90
2018-06-10T03:52:01.631Z,99.90
2018-06-10T03:54:30.084Z,99.90
2018-06-10T03:56:58.577Z,99.90
2018-06-10T03:59:27.058Z,99.90
2018-06-10T04:01:55.832Z,99.90
2018-06-10T04:04:24.941Z,99.90
2018-06-10T04:06:53.423Z,99.90
2018-06-10T04:09:21.906Z,99.90
2018-06-10T04:11:50.390Z,99.90
2018-06-10T04:14:18.864Z,99.90
2018-06-10T04:16:47.352Z,99.90
2018-06-10T04:19:17.463Z,99.90
2018-06-10T04:21:45.988Z,99.90
2018-06-10T04:31:35.934Z,99.90
2018-06-10T04:34:04.435Z,99.90
2018-06-10T04:36:32.870Z,99.90
2018-06-10T04:39:01.422Z,99.90
2018-06-10T04:41:29.902Z,99.90
2018-06-10T04:43:58.405Z,99.90
2018-06-10T04:46:26.880Z,99.90
2018-06-10T04:48:55.344Z,99.90
2018-06-10T04:51:23.821Z,99.90
2018-06-10T04:53:52.915Z,99.90
2018-06-10T04:56:21.574Z,99.90
2018-06-10T05:01:18.328Z,99.90
2018-06-10T05:06:16.679Z,99.90
2018-06-10T05:08:45.237Z,99.90
2018-06-10T05:21:47.830Z,99.90
2018-06-10T05:31:36.612Z,99.90
2018-06-10T05:34:05.095Z,99.90
2018-06-10T05:36:33.567Z,99.90
2018-06-10T05:39:02.711Z,99.90
2018-06-10T05:43:59.502Z,99.90
2018-06-10T05:46:27.993Z,99.90
2018-06-10T05:48:56.567Z,99.90
2018-06-10T05:53:53.305Z,99.90
2018-06-10T05:56:21.786Z,99.90
2018-06-10T05:58:50.328Z,99.90
2018-06-10T06:01:18.863Z,99.90
2018-06-10T06:03:47.468Z,99.80
2018-06-10T06:06:17.922Z,98.50
2018-06-10T06:08:46.521Z,98.00
2018-06-10T06:17:26.207Z,95.90
2018-06-10T06:19:54.671Z,94.30
2018-06-10T06:22:23.239Z,84.90
2018-06-10T06:24:51.799Z,82.80
2018-06-10T06:27:20.472Z,82.00
2018-06-10T06:29:48.998Z,80.00
2018-06-10T06:32:17.531Z,79.80
2018-06-10T06:34:45.991Z,75.70
2018-06-10T06:56:37.812Z,71.10
2018-06-10T07:01:43.860Z,60.10
2018-06-10T07:04:12.484Z,57.10
2018-06-10T07:06:41.187Z,56.40
2018-06-10T07:09:09.892Z,54.30
2018-06-10T07:11:38.378Z,51.50
2018-06-10T07:14:06.922Z,50.30
2018-06-10T07:16:35.740Z,49.60
2018-06-10T07:19:04.231Z,48.60
2018-06-10T07:21:32.782Z,49.40
2018-06-10T07:24:01.291Z,50.40
2018-06-10T07:26:29.994Z,51.40
2018-06-10T07:28:58.471Z,52.20
2018-06-10T07:31:27.002Z,50.60
2018-06-10T07:33:56.064Z,49.20
2018-06-10T07:36:24.586Z,47.20
2018-06-10T07:38:53.714Z,46.10
2018-06-10T07:41:22.215Z,44.50
2018-06-10T07:43:50.936Z,43.80
2018-06-10T07:46:19.456Z,44.30
2018-06-10T07:48:48.058Z,42.50
2018-06-10T07:51:18.884Z,41.60
2018-06-10T07:53:47.516Z,42.60
2018-06-10T07:56:17.579Z,43.10
2018-06-10T07:58:46.213Z,41.10
2018-06-10T08:10:37.479Z,44.00
2018-06-10T08:13:06.176Z,42.50
2018-06-10T08:15:34.740Z,39.20
2018-06-10T08:18:03.249Z,39.50
2018-06-10T08:20:31.948Z,40.20
2018-06-10T08:23:00.475Z,40.80
2018-06-10T08:25:29.044Z,40.20
2018-06-10T08:27:57.575Z,40.40
2018-06-10T08:30:26.174Z,39.20
2018-06-10T08:32:55.300Z,38.10
2018-06-10T08:35:23.860Z,40.00
2018-06-10T08:37:52.415Z,38.20
2018-06-10T08:40:20.995Z,35.80
2018-06-10T08:42:49.487Z,35.60
2018-06-10T08:55:51.640Z,35.20
2018-06-10T08:58:20.154Z,34.90
2018-06-10T09:00:48.639Z,33.20
2018-06-10T09:03:17.468Z,31.60
2018-06-10T09:05:46.042Z,34.10
2018-06-10T09:16:04.933Z,33.80
2018-06-10T09:18:33.462Z,33.80
2018-06-10T09:21:01.975Z,29.30
2018-06-10T09:23:30.587Z,31.20
2018-06-10T09:25:59.178Z,31.50
2018-06-10T09:28:27.691Z,30.40
2018-06-10T09:30:56.182Z,29.60
2018-06-10T09:33:24.763Z,27.40
2018-06-10T09:35:53.270Z,27.80
2018-06-10T09:38:21.795Z,28.50
2018-06-10T09:40:50.266Z,30.40
2018-06-10T09:43:18.702Z,28.80
2018-06-10T09:45:47.190Z,28.60
2018-06-10T09:48:17.324Z,31.00
2018-06-10T09:50:46.090Z,30.80
2018-06-10T10:01:39.814Z,31.10
2018-06-10T10:04:08.287Z,30.00
2018-06-10T10:06:36.735Z,30.60
2018-06-10T10:11:36.077Z,32.90
2018-06-10T10:14:04.826Z,36.40
2018-06-10T10:16:33.924Z,36.10
2018-06-10T10:19:02.511Z,38.70
2018-06-10T10:21:31.025Z,42.70
2018-06-10T10:23:59.578Z,45.10
2018-06-10T10:26:28.102Z,46.00
2018-06-10T10:28:56.637Z,46.00
2018-06-10T10:31:25.154Z,46.20
2018-06-10T10:33:53.653Z,48.20
2018-06-10T10:36:22.850Z,48.10
2018-06-10T10:38:51.390Z,50.50
2018-06-10T10:43:48.060Z,53.30
2018-06-10T10:46:18.098Z,51.90
2018-06-10T10:48:46.767Z,50.90
2018-06-10T11:02:01.081Z,51.30
2018-06-10T11:04:29.602Z,52.20
2018-06-10T11:06:58.108Z,53.00
2018-06-10T11:09:28.402Z,51.10
2018-06-10T11:11:56.882Z,49.70
2018-06-10T11:14:25.509Z,53.20
2018-06-10T11:16:54.647Z,53.60
2018-06-10T11:19:23.130Z,51.30
2018-06-10T11:21:51.869Z,53.60
2018-06-10T11:24:20.926Z,52.20
2018-06-10T11:26:49.465Z,50.80
2018-06-10T11:31:46.094Z,52.60
2018-06-10T11:42:23.975Z,50.00
2018-06-10T11:44:52.407Z,51.70
2018-06-10T11:47:21.085Z,52.80
2018-06-10T11:49:49.666Z,53.40
2018-06-10T11:52:18.268Z,50.90
2018-06-10T11:54:46.753Z,49.10
2018-06-10T12:16:37.431Z,52.20
2018-06-10T12:21:44.558Z,51.60
2018-06-10T12:24:13.133Z,49.00
2018-06-10T12:26:41.583Z,51.40
2018-06-10T12:31:38.671Z,51.30
2018-06-10T12:34:07.219Z,51.20
2018-06-10T12:36:36.161Z,51.90
2018-06-10T12:39:07.772Z,50.80
2018-06-10T12:41:37.015Z,50.00
2018-06-10T12:44:05.792Z,47.80
2018-06-10T12:46:34.281Z,50.10
2018-06-10T12:49:02.960Z,49.50
2018-06-10T12:51:31.450Z,50.60
2018-06-10T12:53:59.957Z,51.10
2018-06-10T12:56:28.487Z,52.40
2018-06-10T12:58:56.983Z,53.60
2018-06-10T13:01:25.503Z,54.10
2018-06-10T13:03:53.999Z,56.40
2018-06-10T13:06:22.513Z,58.30
2018-06-10T13:08:50.970Z,59.80
2018-06-10T13:11:19.479Z,60.80
2018-06-10T13:13:47.971Z,64.00
2018-06-10T13:25:36.701Z,64.20
2018-06-10T13:28:05.341Z,66.00
2018-06-10T13:30:33.869Z,71.00
2018-06-10T13:33:02.387Z,69.60
2018-06-10T13:35:30.874Z,70.00
2018-06-10T13:40:27.646Z,70.40
2018-06-10T13:42:56.091Z,71.70
2018-06-10T13:45:24.567Z,73.50
2018-06-10T13:47:53.374Z,73.60
2018-06-10T13:50:21.918Z,73.20
2018-06-10T13:52:50.518Z,72.40
2018-06-10T13:55:19.140Z,73.20
2018-06-10T13:57:48.038Z,72.90
2018-06-10T14:00:17.700Z,71.80
2018-06-10T14:02:46.951Z,71.40
2018-06-10T14:15:55.289Z,68.30
2018-06-10T14:18:23.826Z,68.90
2018-06-10T14:20:52.402Z,62.80
2018-06-10T14:23:20.982Z,63.00
2018-06-10T14:25:50.336Z,63.10
2018-06-10T14:28:18.918Z,63.80
2018-06-10T14:30:47.614Z,63.10
2018-06-10T14:33:17.314Z,63.40
2018-06-10T14:35:46.720Z,64.50
2018-06-10T14:55:55.999Z,63.70
2018-06-10T14:58:24.490Z,64.10
2018-06-10T15:00:52.961Z,61.80
2018-06-10T15:03:21.940Z,63.20
2018-06-10T15:05:50.509Z,62.20
2018-06-10T15:08:19.232Z,63.00
2018-06-10T15:10:47.800Z,65.50
2018-06-10T15:13:17.371Z,64.30
2018-06-10T15:15:45.967Z,64.30
2018-06-10T15:26:36.558Z,61.80
2018-06-10T15:29:05.530Z,62.10
2018-06-10T15:31:34.003Z,62.20
2018-06-10T15:34:02.537Z,59.90
2018-06-10T15:36:31.048Z,59.90
2018-06-10T15:38:59.524Z,62.80
2018-06-10T15:41:28.026Z,64.70
2018-06-10T15:46:24.779Z,63.80
2018-06-10T15:48:53.860Z,65.50
2018-06-10T15:53:50.774Z,65.10
2018-06-10T15:56:19.467Z,69.20
2018-06-10T15:58:47.962Z,65.20
2018-06-10T16:01:17.383Z,66.50
2018-06-10T16:03:45.900Z,68.50
2018-06-10T16:16:57.915Z,69.50
2018-06-10T16:19:27.231Z,67.20
2018-06-10T16:21:55.767Z,62.70
2018-06-10T16:24:24.520Z,61.00
2018-06-10T16:26:53.162Z,61.90
2018-06-10T16:29:22.382Z,65.00
2018-06-10T16:31:50.895Z,65.10
2018-06-10T16:34:19.479Z,63.00
2018-06-10T16:36:48.030Z,61.80
2018-06-10T16:39:17.846Z,65.10
2018-06-10T16:41:46.395Z,64.00
2018-06-10T16:52:22.298Z,64.00
2018-06-10T16:54:50.892Z,63.60
2018-06-10T16:57:19.476Z,65.20
2018-06-10T16:59:48.785Z,62.60
2018-06-10T17:02:17.348Z,63.80
2018-06-10T17:04:45.855Z,64.10
2018-06-10T17:24:16.055Z,67.40
2018-06-10T17:26:44.519Z,69.50
2018-06-10T17:29:13.027Z,71.50
2018-06-10T17:31:42.179Z,71.20
2018-06-10T17:34:10.747Z,71.40
2018-06-10T17:36:39.464Z,73.90
2018-06-10T17:39:08.334Z,73.80
2018-06-10T17:41:36.923Z,78.80
2018-06-10T17:44:05.484Z,76.70
2018-06-10T17:46:34.167Z,77.50
2018-06-10T17:49:02.784Z,78.40
2018-06-10T17:51:31.225Z,78.50
2018-06-10T17:54:00.133Z,75.90
2018-06-10T17:56:29.267Z,73.60
2018-06-10T17:58:57.836Z,75.80
2018-06-10T18:01:26.339Z,74.60
2018-06-10T18:03:54.887Z,75.40
2018-06-10T18:08:52.627Z,73.90
2018-06-10T18:11:21.196Z,73.00
2018-06-10T18:13:49.978Z,74.30
2018-06-10T18:16:18.707Z,72.70
2018-06-10T18:21:16.606Z,77.80
2018-06-10T18:23:45.119Z,79.30
2018-06-10T18:31:34.876Z,79.90
2018-06-10T18:34:03.976Z,80.40
2018-06-10T18:37:40.987Z,78.20
2018-06-10T18:40:09.496Z,80.80
2018-06-10T18:42:38.006Z,82.70
2018-06-10T18:45:06.643Z,81.10
2018-06-10T18:47:35.206Z,83.40
2018-06-10T18:50:04.118Z,85.70
2018-06-10T18:52:33.346Z,85.40
2018-06-10T18:55:01.831Z,87.30
2018-06-10T18:57:30.287Z,88.80
2018-06-10T18:59:58.843Z,89.50
2018-06-10T19:02:27.442Z,90.30
2018-06-10T19:04:55.958Z,89.40
2018-06-10T19:07:24.522Z,90.00
2018-06-10T19:09:53.308Z,90.20
2018-06-10T19:12:21.811Z,90.10
2018-06-10T19:14:50.378Z,91.00
2018-06-10T19:17:18.930Z,90.70
2018-06-10T19:19:47.978Z,91.10
2018-06-10T19:22:17.498Z,91.00
2018-06-10T19:24:45.964Z,91.10
2018-06-10T19:31:35.777Z,90.70
2018-06-10T19:34:04.473Z,90.70
2018-06-10T19:36:33.015Z,92.00
2018-06-10T19:39:01.804Z,92.00
2018-06-10T19:41:30.375Z,92.30
2018-06-10T19:43:58.987Z,92.80
2018-06-10T19:46:27.477Z,93.10
2018-06-10T19:48:56.155Z,93.50
2018-06-10T19:51:24.634Z,93.60
2018-06-10T19:53:53.366Z,93.90
2018-06-10T19:56:22.848Z,94.00
2018-06-10T20:01:19.975Z,94.60
2018-06-10T20:03:48.639Z,95.10
2018-06-10T20:06:17.690Z,95.50
2018-06-10T20:08:46.178Z,95.40
2018-06-10T20:21:47.570Z,95.50
2018-06-10T20:31:36.567Z,95.80
2018-06-10T20:34:05.935Z,98.70
2018-06-10T20:37:47.055Z,99.90
2018-06-10T20:40:17.408Z,99.90
2018-06-10T20:42:46.080Z,99.90
2018-06-10T20:51:07.672Z,99.90
2018-06-10T20:53:36.284Z,99.90
2018-06-10T20:56:04.892Z,99.90
2018-06-10T20:58:33.829Z,99.90
2018-06-10T21:01:02.520Z,99.90
2018-06-10T21:03:31.162Z,99.90
2018-06-10T21:05:59.735Z,99.90
2018-06-10T21:08:28.307Z,99.90
2018-06-10T21:10:56.847Z,99.90
2018-06-10T21:13:25.420Z,99.90
2018-06-10T21:15:54.093Z,99.90
2018-06-10T21:18:22.588Z,99.90
2018-06-10T21:20:51.832Z,99.90
2018-06-10T21:23:20.351Z,99.90
2018-06-10T21:25:48.880Z,99.90
2018-06-10T21:28:17.423Z,99.90
2018-06-10T21:30:46.011Z,99.90
2018-06-10T21:51:20.728Z,99.90
2018-06-10T21:53:49.516Z,99.90
2018-06-10T21:56:18.013Z,99.90
2018-06-10T21:58:46.847Z,99.90
2018-06-10T22:14:16.739Z,99.90
2018-06-10T22:16:45.230Z,99.90
2018-06-10T22:26:57.815Z,99.90
2018-06-10T22:29:26.453Z,99.90
2018-06-10T22:31:54.945Z,99.90
2018-06-10T22:34:23.450Z,99.90
2018-06-10T22:36:52.094Z,99.90
2018-06-10T22:39:20.603Z,99.90
2018-06-10T22:41:49.574Z,99.90
2018-06-10T22:44:18.072Z,99.90
2018-06-10T22:46:46.682Z,99.90
2018-06-10T23:07:10.814Z,99.90
2018-06-10T23:09:39.631Z,99.90
2018-06-10T23:12:08.156Z,99.90
2018-06-10T23:14:36.691Z,99.90
2018-06-10T23:17:05.165Z,99.90
2018-06-10T23:22:01.958Z,99.90
2018-06-10T23:24:30.430Z,99.90
2018-06-10T23:26:58.943Z,99.90
2018-06-10T23:29:27.902Z,99.90
2018-06-10T23:31:56.408Z,99.90
2018-06-10T23:34:24.884Z,99.90
2018-06-10T23:36:53.367Z,99.90
2018-06-10T23:39:21.834Z,99.90
2018-06-10T23:41:50.699Z,99.90
2018-06-10T23:44:19.212Z,99.90
2018-06-10T23:46:48.042Z,99.90
2018-06-10T23:51:46.909Z,99.90
